Time;durP1;ratioP1;P1;durP2;ratioP2;P2;SDS_P1;SDS_P2;PMS_P1;PMS_P2;Temp;Humidity;BMP_temperature;BMP_pressure;BME280_temperature;BME280_humidity;BME280_pressure;Samples;Min_cycle;Max_cycle;Signal;HPM_P1;HPM_P2
2023/04/14 00:03:03;;;;;;;19.10;13.90;;;;;;;10.54;63.91;99266.66;131150;1250;107379;-77
2023/04/14 00:06:09;;;;;;;16.20;12.10;;;;;;;10.62;63.87;99268.48;131182;1253;106522;-77
2023/04/14 00:09:14;;;;;;;15.70;10.90;;;;;;;10.67;64.09;99266.19;131374;1253;107584;-78
2023/04/14 00:12:20;;;;;;;16.10;11.30;;;;;;;10.69;64.42;99265.05;131116;1253;107592;-76
2023/04/14 00:15:25;;;;;;;15.00;11.20;;;;;;;10.70;64.55;99267.15;131736;1251;107250;-77
2023/04/14 00:18:31;;;;;;;21.70;15.50;;;;;;;10.71;64.69;99268.28;131335;1253;108693;-77
2023/04/14 00:21:36;;;;;;;17.40;12.30;;;;;;;10.72;64.85;99263.98;131432;1253;107539;-77
2023/04/14 00:24:42;;;;;;;15.70;11.30;;;;;;;10.70;64.84;99268.10;131371;1253;106049;-77
2023/04/14 00:27:48;;;;;;;16.30;12.00;;;;;;;10.69;64.99;99269.44;131254;1254;106864;-76
2023/04/14 00:30:53;;;;;;;15.10;11.40;;;;;;;10.70;64.96;99265.45;131203;1251;107570;-76
2023/04/14 00:33:59;;;;;;;15.60;11.00;;;;;;;10.69;65.26;99267.52;131460;1251;107522;-77
2023/04/14 00:37:04;;;;;;;16.70;12.30;;;;;;;10.67;65.31;99268.98;131111;1253;108557;-76
2023/04/14 00:40:11;;;;;;;15.70;9.80;;;;;;;10.65;65.42;99268.73;131206;1250;105856;-76
2023/04/14 00:43:20;;;;;;;13.40;9.80;;;;;;;10.66;65.69;99267.16;131347;1253;107402;-76
2023/04/14 00:46:26;;;;;;;13.00;9.50;;;;;;;10.70;65.67;99267.86;130962;1251;108674;-76
2023/04/14 00:49:31;;;;;;;12.80;9.60;;;;;;;10.75;65.77;99269.59;131066;1253;107300;-76
2023/04/14 00:52:38;;;;;;;18.00;13.50;;;;;;;10.79;65.85;99275.48;131065;1253;107383;-76
2023/04/14 00:55:44;;;;;;;18.60;12.60;;;;;;;10.81;65.93;99273.58;131178;1250;108127;-76
2023/04/14 00:58:53;;;;;;;15.60;10.40;;;;;;;10.82;66.13;99272.91;131408;1250;107313;-76
2023/04/14 01:02:00;;;;;;;16.00;10.90;;;;;;;10.82;66.08;99272.00;131500;1253;107396;-76
2023/04/14 01:05:06;;;;;;;13.90;10.40;;;;;;;10.81;66.08;99266.23;131474;1253;107502;-76
2023/04/14 01:08:11;;;;;;;13.40;10.10;;;;;;;10.79;65.92;99267.02;131295;1250;109046;-78
2023/04/14 01:11:28;;;;;;;12.30;9.90;;;;;;;10.77;66.26;99266.01;131176;1253;107416;-76
2023/04/14 01:14:43;;;;;;;13.00;10.10;;;;;;;10.75;66.51;99265.73;131351;1253;107266;-76
2023/04/14 01:17:57;;;;;;;11.80;8.80;;;;;;;10.71;66.83;99261.54;131431;1265;107551;-77
2023/04/14 01:21:10;;;;;;;11.80;8.10;;;;;;;10.70;66.96;99263.16;131253;1251;107433;-76
2023/04/14 01:24:47;;;;;;;11.60;9.10;;;;;;;10.71;66.74;99261.88;131255;1256;107269;-76
2023/04/14 01:28:05;;;;;;;11.80;9.10;;;;;;;10.75;67.11;99255.61;131357;1256;107512;-77
2023/04/14 01:31:25;;;;;;;11.40;9.50;;;;;;;10.77;67.17;99257.77;131359;1253;106572;-77
2023/04/14 01:34:37;;;;;;;13.40;9.60;;;;;;;10.78;67.21;99256.98;131211;1251;106516;-76
2023/04/14 01:37:47;;;;;;;37.50;27.80;;;;;;;10.79;67.29;99253.88;131206;1254;107425;-77
2023/04/14 01:40:56;;;;;;;41.50;30.70;;;;;;;10.79;67.27;99258.98;131004;1255;107842;-76
2023/04/14 01:44:04;;;;;;;60.10;44.60;;;;;;;10.77;67.32;99255.36;131157;1253;107388;-76
2023/04/14 01:47:17;;;;;;;32.70;26.30;;;;;;;10.75;67.58;99257.14;131264;1250;107514;-77
2023/04/14 01:50:24;;;;;;;26.60;19.80;;;;;;;10.73;67.87;99251.03;131318;1253;108695;-77
2023/04/14 01:53:31;;;;;;;20.10;16.10;;;;;;;10.70;67.38;99249.04;131057;1250;107266;-76
2023/04/14 01:56:40;;;;;;;14.20;10.60;;;;;;;10.67;68.00;99250.17;131140;1248;107470;-77
2023/04/14 01:59:47;;;;;;;11.60;8.50;;;;;;;10.62;68.07;99249.58;131252;1253;107699;-76
2023/04/14 02:02:54;;;;;;;11.60;8.80;;;;;;;10.60;68.25;99249.60;131247;1255;107924;-77
2023/04/14 02:06:02;;;;;;;10.60;8.40;;;;;;;10.61;68.50;99248.98;131014;1253;107496;-76
2023/04/14 02:09:11;;;;;;;12.00;8.50;;;;;;;10.64;68.45;99246.85;131223;1253;107498;-76
2023/04/14 02:12:20;;;;;;;14.70;10.90;;;;;;;10.65;68.13;99246.95;131224;1250;107517;-77
2023/04/14 02:15:30;;;;;;;17.90;13.30;;;;;;;10.64;68.33;99249.94;131323;1253;107513;-76
2023/04/14 02:18:37;;;;;;;23.30;15.30;;;;;;;10.62;68.43;99252.48;131392;1251;107455;-76
2023/04/14 02:21:44;;;;;;;26.30;17.10;;;;;;;10.59;68.69;99251.52;131161;1250;107292;-76
2023/04/14 02:24:50;;;;;;;27.80;20.20;;;;;;;10.55;68.73;99252.69;131132;1253;107531;-77
2023/04/14 02:27:58;;;;;;;20.00;14.30;;;;;;;10.51;69.02;99257.16;131166;1253;108097;-77
2023/04/14 02:31:09;;;;;;;14.10;10.00;;;;;;;10.44;69.02;99256.52;131263;1253;106397;-76
2023/04/14 02:34:18;;;;;;;15.00;10.90;;;;;;;10.40;68.84;99260.83;131355;1254;107554;-77
2023/04/14 02:37:27;;;;;;;20.90;13.20;;;;;;;10.40;69.13;99262.98;131334;1253;107524;-76
2023/04/14 02:40:36;;;;;;;18.00;12.60;;;;;;;10.41;69.53;99257.72;131333;1250;106285;-76
2023/04/14 02:43:47;;;;;;;15.70;11.70;;;;;;;10.41;69.23;99256.95;131413;1264;107361;-77
2023/04/14 02:47:02;;;;;;;13.30;10.00;;;;;;;10.43;69.73;99260.52;131481;1253;106535;-78
2023/04/14 02:50:15;;;;;;;14.00;10.40;;;;;;;10.41;69.71;99258.72;131282;1256;107552;-76
2023/04/14 02:53:26;;;;;;;17.80;12.60;;;;;;;10.39;69.68;99256.38;131120;1253;107625;-76
2023/04/14 02:56:40;;;;;;;24.20;16.20;;;;;;;10.34;69.80;99255.21;131063;1253;108239;-75
2023/04/14 02:59:47;;;;;;;28.80;18.20;;;;;;;10.28;69.76;99258.86;131178;1253;107460;-76
2023/04/14 03:02:55;;;;;;;26.30;15.90;;;;;;;10.19;69.73;99257.52;131160;1255;107584;-76
2023/04/14 03:06:01;;;;;;;17.40;11.40;;;;;;;10.07;69.70;99258.31;131264;1253;107534;-75
2023/04/14 03:09:08;;;;;;;18.20;11.30;;;;;;;9.97;69.75;99261.56;131400;1265;107238;-76
2023/04/14 03:12:16;;;;;;;15.20;9.90;;;;;;;9.91;69.87;99262.99;131117;1253;107493;-77
2023/04/14 03:15:24;;;;;;;17.70;12.30;;;;;;;9.85;70.22;99268.91;131257;1253;107410;-76
2023/04/14 03:18:32;;;;;;;16.40;11.30;;;;;;;9.76;70.15;99268.78;131078;1254;107333;-75
2023/04/14 03:21:38;;;;;;;15.50;10.50;;;;;;;9.72;70.26;99271.15;131434;1253;107403;-75
2023/04/14 03:24:46;;;;;;;16.50;11.40;;;;;;;9.68;70.29;99266.70;131008;1255;107466;-76
2023/04/14 03:27:55;;;;;;;14.80;10.60;;;;;;;9.64;70.65;99269.75;131030;1251;107531;-77
2023/04/14 03:31:03;;;;;;;14.30;10.40;;;;;;;9.60;70.69;99270.59;131070;1254;106704;-76
2023/04/14 03:34:17;;;;;;;17.00;11.60;;;;;;;9.57;70.54;99274.63;131481;1253;107471;-77
2023/04/14 03:37:27;;;;;;;20.90;13.00;;;;;;;9.51;70.71;99279.54;131141;1251;107437;-76
2023/04/14 03:40:37;;;;;;;14.80;10.50;;;;;;;9.45;70.81;99279.13;131097;1254;107558;-77
2023/04/14 03:43:45;;;;;;;19.80;12.10;;;;;;;9.45;70.83;99283.41;131327;1253;107993;-77
2023/04/14 03:46:54;;;;;;;20.50;12.50;;;;;;;9.46;71.11;99279.88;131073;1253;107413;-77
2023/04/14 03:50:03;;;;;;;22.30;13.30;;;;;;;9.52;70.93;99282.87;131152;1253;107454;-77
2023/04/14 03:53:11;;;;;;;15.30;11.30;;;;;;;9.55;71.12;99284.42;131133;1254;108607;-76
2023/04/14 03:56:17;;;;;;;17.70;11.70;;;;;;;9.58;71.23;99289.97;131207;1252;107437;-76
2023/04/14 03:59:26;;;;;;;19.80;13.90;;;;;;;9.60;71.29;99289.98;131204;1255;107517;-76
2023/04/14 04:02:32;;;;;;;18.10;14.10;;;;;;;9.61;71.62;99287.50;131278;1256;107559;-76
2023/04/14 04:05:39;;;;;;;17.30;12.30;;;;;;;9.62;71.50;99288.03;131401;1253;107330;-76
2023/04/14 04:08:47;;;;;;;14.90;10.40;;;;;;;9.65;71.84;99285.27;131262;1266;107256;-76
2023/04/14 04:11:56;;;;;;;19.80;11.00;;;;;;;9.67;71.77;99283.80;131456;1256;107315;-76
2023/04/14 04:15:03;;;;;;;17.90;10.60;;;;;;;9.71;71.54;99278.59;131175;1255;107485;-76
2023/04/14 04:18:11;;;;;;;13.90;9.20;;;;;;;9.76;71.91;99280.83;131403;1253;107425;-76
2023/04/14 04:21:19;;;;;;;15.30;10.40;;;;;;;9.85;72.09;99283.39;131278;1255;107607;-76
2023/04/14 04:24:29;;;;;;;13.50;10.30;;;;;;;9.94;71.84;99283.75;131365;1253;107389;-76
2023/04/14 04:27:36;;;;;;;15.50;11.40;;;;;;;10.07;71.97;99282.17;131281;1253;107460;-76
2023/04/14 04:30:52;;;;;;;15.70;10.60;;;;;;;10.22;72.08;99284.96;131326;1250;107456;-77
2023/04/14 04:33:59;;;;;;;13.70;10.40;;;;;;;10.39;72.01;99279.10;131239;1257;107546;-76
2023/04/14 04:37:06;;;;;;;13.90;10.30;;;;;;;10.53;72.01;99277.73;131230;1253;107467;-77
2023/04/14 04:40:13;;;;;;;11.40;8.70;;;;;;;10.64;72.04;99273.70;131238;1254;108572;-76
2023/04/14 04:43:19;;;;;;;11.20;8.30;;;;;;;10.78;72.03;99277.56;131433;1250;107531;-76
2023/04/14 04:46:42;;;;;;;14.50;10.10;;;;;;;10.95;71.89;99275.67;131388;1254;107553;-76
2023/04/14 04:49:48;;;;;;;11.40;9.00;;;;;;;11.14;71.78;99276.30;131439;1253;107531;-76
2023/04/14 04:52:54;;;;;;;11.40;9.30;;;;;;;11.30;71.54;99274.26;131211;1253;107436;-76
2023/04/14 04:56:01;;;;;;;12.80;9.70;;;;;;;11.45;71.53;99272.71;131260;1253;107379;-76
2023/04/14 04:59:06;;;;;;;11.50;9.00;;;;;;;11.55;71.52;99275.87;131381;1251;107294;-76
2023/04/14 05:02:12;;;;;;;13.50;10.10;;;;;;;11.62;71.38;99278.14;131313;1253;107592;-78
2023/04/14 05:05:17;;;;;;;12.30;9.70;;;;;;;11.65;71.32;99278.30;131410;1251;109448;-76
2023/04/14 05:08:23;;;;;;;11.90;9.40;;;;;;;11.66;71.34;99277.56;131337;1250;107240;-76
2023/04/14 05:11:28;;;;;;;13.10;9.50;;;;;;;11.70;71.48;99282.59;131253;1253;106569;-76
2023/04/14 05:14:34;;;;;;;13.80;9.80;;;;;;;11.72;71.36;99290.45;131300;1253;107496;-76
2023/04/14 05:17:40;;;;;;;12.60;10.20;;;;;;;11.73;71.37;99290.50;131344;1253;107245;-76
2023/04/14 05:20:45;;;;;;;12.60;8.80;;;;;;;11.71;71.31;99289.46;131445;1253;107459;-77
2023/04/14 05:23:51;;;;;;;11.50;9.30;;;;;;;11.66;71.26;99285.27;131356;1260;107563;-77
2023/04/14 05:26:56;;;;;;;12.10;9.30;;;;;;;11.63;71.46;99282.23;131311;1253;107553;-77
2023/04/14 05:30:02;;;;;;;11.30;9.20;;;;;;;11.59;71.50;99282.14;131300;1253;106703;-76
2023/04/14 05:33:07;;;;;;;11.40;8.90;;;;;;;11.61;71.54;99283.63;131308;1253;107533;-76
2023/04/14 05:36:13;;;;;;;16.60;9.90;;;;;;;11.60;71.51;99285.14;131477;1251;107534;-76
2023/04/14 05:39:18;;;;;;;12.10;9.30;;;;;;;11.58;71.63;99286.19;131409;1253;106410;-76
2023/04/14 05:42:24;;;;;;;12.10;9.60;;;;;;;11.56;71.66;99287.67;131383;1251;107535;-76
2023/04/14 05:45:29;;;;;;;13.00;9.70;;;;;;;11.57;71.59;99294.65;131518;1250;107549;-75
2023/04/14 05:48:36;;;;;;;13.20;9.80;;;;;;;11.59;71.72;99293.73;131323;1253;107544;-76
2023/04/14 05:51:42;;;;;;;14.10;11.10;;;;;;;11.62;71.90;99295.00;131370;1252;105975;-76
2023/04/14 05:54:47;;;;;;;12.70;9.90;;;;;;;11.65;71.96;99293.06;131395;1253;107630;-75
2023/04/14 05:57:53;;;;;;;16.00;9.80;;;;;;;11.64;71.74;99293.13;131351;1253;107275;-75
2023/04/14 06:00:58;;;;;;;14.60;9.70;;;;;;;11.66;71.91;99293.99;131404;1253;107552;-75
2023/04/14 06:04:03;;;;;;;13.70;9.90;;;;;;;11.75;71.95;99297.20;131441;1253;107976;-75
2023/04/14 06:07:09;;;;;;;13.50;9.40;;;;;;;11.84;71.81;99302.20;131319;1253;107556;-75
2023/04/14 06:10:15;;;;;;;15.40;11.40;;;;;;;11.91;71.93;99299.58;131358;1253;107635;-75
2023/04/14 06:13:21;;;;;;;15.10;11.20;;;;;;;11.99;71.70;99296.52;131372;1262;107499;-78
2023/04/14 06:16:27;;;;;;;14.80;11.50;;;;;;;12.05;71.72;99299.86;131338;1253;107262;-75
2023/04/14 06:19:32;;;;;;;16.20;11.20;;;;;;;12.06;71.56;99305.08;131358;1250;107566;-76
2023/04/14 06:22:39;;;;;;;14.40;11.00;;;;;;;12.07;71.37;99304.40;131223;1256;105964;-75
2023/04/14 06:25:44;;;;;;;12.30;10.20;;;;;;;12.09;71.60;99298.45;131139;1250;107293;-76
2023/04/14 06:28:50;;;;;;;14.20;10.60;;;;;;;12.14;71.40;99298.91;131388;1253;107453;-76
2023/04/14 06:31:56;;;;;;;14.80;10.60;;;;;;;12.19;71.42;99297.08;131426;1253;107294;-76
2023/04/14 06:35:03;;;;;;;13.30;10.70;;;;;;;12.22;71.49;99292.79;131410;1253;107413;-76
2023/04/14 06:38:09;;;;;;;14.20;10.80;;;;;;;12.27;71.44;99294.11;131317;1263;107246;-75
2023/04/14 06:41:14;;;;;;;16.30;11.10;;;;;;;12.30;71.05;99296.88;131301;1253;106073;-76
2023/04/14 06:44:20;;;;;;;16.10;11.50;;;;;;;12.34;71.13;99297.00;131294;1253;107535;-76
2023/04/14 06:47:25;;;;;;;13.40;11.20;;;;;;;12.43;71.07;99294.38;131361;1252;106700;-76
2023/04/14 06:50:30;;;;;;;13.60;10.50;;;;;;;12.54;70.91;99291.00;131437;1264;107554;-76
2023/04/14 06:53:36;;;;;;;15.20;11.30;;;;;;;12.66;70.88;99290.17;131385;1250;107563;-76
2023/04/14 06:56:41;;;;;;;15.30;12.20;;;;;;;12.76;70.63;99287.73;131436;1253;106037;-76
2023/04/14 06:59:47;;;;;;;19.00;13.00;;;;;;;12.83;70.54;99285.33;131284;1252;107498;-76
2023/04/14 07:02:52;;;;;;;15.00;11.80;;;;;;;12.90;70.64;99278.92;131369;1261;107534;-75
2023/04/14 07:06:04;;;;;;;15.20;11.80;;;;;;;12.97;70.09;99276.97;131388;1262;107506;-75
2023/04/14 07:09:09;;;;;;;16.00;11.10;;;;;;;13.03;70.30;99275.90;131388;1253;107512;-75
2023/04/14 07:12:16;;;;;;;15.80;11.60;;;;;;;13.09;70.24;99279.50;131349;1249;107611;-76
2023/04/14 07:15:22;;;;;;;14.60;10.70;;;;;;;13.15;70.19;99275.38;131325;1253;107389;-76
2023/04/14 07:18:28;;;;;;;12.40;10.80;;;;;;;13.22;69.87;99274.36;131452;1253;107356;-75
2023/04/14 07:21:33;;;;;;;12.10;10.70;;;;;;;13.26;69.58;99281.83;131494;1252;107224;-75
2023/04/14 07:24:39;;;;;;;14.40;11.10;;;;;;;13.29;69.58;99285.10;131379;1253;107530;-76
2023/04/14 07:27:45;;;;;;;12.10;10.00;;;;;;;13.33;69.57;99279.39;131399;1253;106689;-75
2023/04/14 07:30:51;;;;;;;14.10;10.90;;;;;;;13.39;69.47;99284.26;131363;1253;107558;-75
2023/04/14 07:33:57;;;;;;;11.40;10.00;;;;;;;13.44;69.29;99284.05;131416;1250;108549;-76
2023/04/14 07:37:02;;;;;;;13.10;10.90;;;;;;;13.51;69.18;99286.20;131358;1252;107496;-76
2023/04/14 07:40:10;;;;;;;13.40;11.10;;;;;;;13.59;69.01;99284.92;131409;1253;107514;-76
2023/04/14 07:43:15;;;;;;;15.50;11.60;;;;;;;13.65;69.04;99286.94;131363;1253;106654;-75
2023/04/14 07:46:21;;;;;;;15.00;11.20;;;;;;;13.74;68.80;99283.45;131451;1253;107398;-76
2023/04/14 07:49:27;;;;;;;13.70;11.30;;;;;;;13.81;68.71;99280.60;131459;1253;106310;-75
2023/04/14 07:52:32;;;;;;;14.40;11.10;;;;;;;13.88;68.41;99280.27;131327;1253;107294;-75
2023/04/14 07:55:37;;;;;;;13.90;10.20;;;;;;;13.95;68.15;99272.42;131422;1253;107448;-75
2023/04/14 07:58:43;;;;;;;12.10;10.30;;;;;;;14.05;68.12;99270.61;131263;1253;107505;-75
2023/04/14 08:01:48;;;;;;;11.60;10.00;;;;;;;14.15;68.15;99269.41;131090;1251;109231;-76
2023/04/14 08:04:54;;;;;;;11.90;9.90;;;;;;;14.23;67.95;99270.67;131461;1253;106060;-75
2023/04/14 08:07:59;;;;;;;13.40;9.70;;;;;;;14.27;67.69;99273.01;131398;1257;107589;-76
2023/04/14 08:11:05;;;;;;;12.50;10.50;;;;;;;14.32;67.81;99273.27;131417;1253;107524;-76
2023/04/14 08:14:10;;;;;;;12.50;10.90;;;;;;;14.38;67.53;99273.45;131130;1253;107532;-76
2023/04/14 08:17:16;;;;;;;12.60;10.30;;;;;;;14.43;67.43;99272.43;131010;1251;107259;-77
2023/04/14 08:20:21;;;;;;;12.30;9.90;;;;;;;14.47;66.96;99272.52;131165;1257;107441;-76
2023/04/14 08:23:27;;;;;;;11.50;10.00;;;;;;;14.52;66.79;99264.87;131135;1253;107238;-76
2023/04/14 08:26:32;;;;;;;14.10;10.40;;;;;;;14.57;66.88;99256.79;131207;1262;107386;-76
2023/04/14 08:29:37;;;;;;;11.90;10.70;;;;;;;14.64;66.69;99255.82;131338;1253;107521;-75
2023/04/14 08:32:43;;;;;;;11.50;10.10;;;;;;;14.73;65.98;99256.95;131421;1254;107218;-76
2023/04/14 08:35:48;;;;;;;12.50;10.80;;;;;;;14.78;66.10;99256.69;131378;1252;107423;-76
2023/04/14 08:38:54;;;;;;;13.60;10.60;;;;;;;14.82;65.92;99251.46;131375;1252;107541;-76
2023/04/14 08:41:59;;;;;;;12.40;10.60;;;;;;;14.86;65.88;99247.51;131378;1250;107383;-75
2023/04/14 08:45:06;;;;;;;13.50;10.20;;;;;;;14.91;65.38;99249.20;131428;1253;106585;-76
2023/04/14 08:48:15;;;;;;;13.80;11.20;;;;;;;14.97;65.26;99249.88;131438;1252;107095;-76
2023/04/14 08:51:30;;;;;;;14.00;11.20;;;;;;;15.02;64.94;99251.89;131518;1263;107578;-75
2023/04/14 08:54:36;;;;;;;14.40;11.40;;;;;;;15.06;64.76;99247.05;131351;1253;107348;-76
2023/04/14 08:57:45;;;;;;;12.90;10.70;;;;;;;15.14;64.76;99250.65;131428;1253;107610;-75
2023/04/14 09:00:53;;;;;;;12.00;10.60;;;;;;;15.22;63.97;99248.41;131436;1256;107571;-78
2023/04/14 09:03:59;;;;;;;13.00;11.10;;;;;;;15.28;63.37;99255.30;131319;1257;107509;-75
2023/04/14 09:07:05;;;;;;;11.30;10.10;;;;;;;15.32;63.05;99245.88;131312;1253;107534;-76
2023/04/14 09:10:12;;;;;;;14.70;10.80;;;;;;;15.40;63.41;99255.21;131421;1254;107224;-76
2023/04/14 09:13:21;;;;;;;16.50;10.80;;;;;;;15.46;62.97;99257.73;131492;1250;107526;-76
2023/04/14 09:16:28;;;;;;;11.60;10.30;;;;;;;15.51;61.91;99254.73;131422;1252;107391;-75
2023/04/14 09:19:34;;;;;;;13.40;10.90;;;;;;;15.54;62.49;99255.90;131375;1256;107455;-75
2023/04/14 09:22:40;;;;;;;16.00;11.00;;;;;;;15.57;62.10;99256.85;131406;1253;107568;-75
2023/04/14 09:25:46;;;;;;;14.40;11.10;;;;;;;15.54;61.56;99257.89;131332;1253;107708;-75
2023/04/14 09:28:51;;;;;;;14.20;11.70;;;;;;;15.59;61.93;99258.86;131433;1253;107559;-75
2023/04/14 09:31:57;;;;;;;13.80;11.40;;;;;;;15.62;61.70;99253.65;131388;1253;107271;-76
2023/04/14 09:35:03;;;;;;;12.70;11.30;;;;;;;15.66;62.00;99248.05;131479;1253;107298;-76
2023/04/14 09:38:08;;;;;;;11.90;10.30;;;;;;;15.73;62.03;99240.77;131434;1254;108631;-76
2023/04/14 09:41:18;;;;;;;13.30;11.50;;;;;;;15.82;61.47;99239.46;131366;1253;108501;-76
2023/04/14 09:44:24;;;;;;;12.60;11.30;;;;;;;15.86;61.02;99231.88;131481;1251;107533;-76
2023/04/14 09:47:30;;;;;;;13.20;10.50;;;;;;;15.86;61.27;99230.32;131417;1253;107473;-76
2023/04/14 09:50:59;;;;;;;11.80;10.60;;;;;;;15.88;61.06;99228.57;131371;1254;107224;-76
2023/04/14 09:54:05;;;;;;;11.40;10.00;;;;;;;15.92;60.65;99227.09;131456;1252;107534;-76
2023/04/14 09:57:11;;;;;;;11.00;9.80;;;;;;;15.97;60.80;99225.27;131348;1253;107587;-75
2023/04/14 10:00:24;;;;;;;10.60;9.50;;;;;;;16.06;60.21;99216.80;131410;1254;107516;-76
2023/04/14 10:03:40;;;;;;;11.80;9.20;;;;;;;16.17;60.27;99215.55;131396;1262;107516;-76
2023/04/14 10:06:49;;;;;;;10.40;9.30;;;;;;;16.26;59.72;99215.48;131408;1250;107247;-75
2023/04/14 10:09:55;;;;;;;10.50;8.30;;;;;;;16.39;59.75;99209.27;131285;1263;107430;-76
2023/04/14 10:13:01;;;;;;;10.20;8.50;;;;;;;16.56;59.15;99207.86;131352;1251;107288;-75
2023/04/14 10:16:07;;;;;;;8.10;7.30;;;;;;;16.73;58.99;99207.61;131331;1256;106726;-76
2023/04/14 10:19:13;;;;;;;9.80;7.60;;;;;;;16.83;57.90;99205.91;131275;1255;106894;-76
2023/04/14 10:22:20;;;;;;;8.10;7.30;;;;;;;16.86;58.33;99196.80;131134;1256;107646;-75
2023/04/14 10:25:26;;;;;;;7.70;6.60;;;;;;;17.00;58.03;99195.41;131183;1256;107600;-76
2023/04/14 10:28:33;;;;;;;7.10;6.30;;;;;;;17.11;56.65;99201.15;131291;1256;107586;-76
2023/04/14 10:31:41;;;;;;;13.30;8.60;;;;;;;17.20;56.38;99200.57;131269;1255;107539;-76
2023/04/14 10:35:00;;;;;;;8.90;7.40;;;;;;;17.40;56.13;99195.70;131356;1262;107379;-76
2023/04/14 10:38:05;;;;;;;8.40;6.60;;;;;;;17.62;56.12;99191.91;131173;1256;107510;-75
2023/04/14 10:41:11;;;;;;;9.80;8.50;;;;;;;17.83;55.71;99193.39;131281;1257;107543;-75
2023/04/14 10:44:28;;;;;;;11.90;8.70;;;;;;;17.93;55.21;99190.98;131389;1256;108484;-76
2023/04/14 10:47:35;;;;;;;9.60;6.80;;;;;;;18.01;54.57;99178.96;131324;1255;107571;-75
2023/04/14 10:50:48;;;;;;;10.80;6.70;;;;;;;18.13;54.23;99182.14;131350;1264;105694;-75
2023/04/14 10:53:56;;;;;;;8.30;6.30;;;;;;;18.32;54.05;99180.54;131301;1255;107513;-75
2023/04/14 10:57:13;;;;;;;7.30;6.20;;;;;;;18.39;53.68;99180.81;131316;1253;109339;-75
2023/04/14 11:00:27;;;;;;;7.60;6.30;;;;;;;18.34;53.84;99180.31;131362;1255;107568;-75
2023/04/14 11:03:43;;;;;;;5.80;5.20;;;;;;;18.36;52.85;99182.35;131165;1254;107221;-75
2023/04/14 11:06:54;;;;;;;6.10;5.50;;;;;;;18.38;53.33;99175.44;131417;1253;109403;-75
2023/04/14 11:10:27;;;;;;;6.40;5.70;;;;;;;18.47;52.14;99179.23;131542;1252;107626;-78
2023/04/14 11:13:34;;;;;;;5.90;5.30;;;;;;;18.41;52.06;99178.65;131512;1253;107511;-78
2023/04/14 11:16:40;;;;;;;7.20;5.70;;;;;;;18.45;52.15;99178.31;131411;1253;107546;-77
2023/04/14 11:19:46;;;;;;;6.30;5.50;;;;;;;18.46;51.86;99174.35;131417;1260;108637;-78
2023/04/14 11:22:53;;;;;;;7.10;6.10;;;;;;;18.46;52.30;99174.85;131403;1251;107368;-77
2023/04/14 11:25:59;;;;;;;6.80;5.80;;;;;;;18.56;51.74;99173.45;131461;1255;107551;-77
2023/04/14 11:29:08;;;;;;;6.50;5.80;;;;;;;18.67;50.43;99168.75;131363;1254;107385;-77
2023/04/14 11:32:15;;;;;;;6.60;5.10;;;;;;;18.71;50.43;99161.53;131356;1251;107530;-78
2023/04/14 11:35:23;;;;;;;6.70;5.30;;;;;;;18.74;49.00;99158.13;131479;1253;107484;-76
2023/04/14 11:38:28;;;;;;;6.10;5.30;;;;;;;18.70;49.01;99150.89;131503;1255;107286;-76
2023/04/14 11:41:34;;;;;;;7.60;6.10;;;;;;;18.67;49.67;99156.50;131317;1253;107414;-76
2023/04/14 11:44:40;;;;;;;7.00;5.90;;;;;;;18.76;49.89;99157.33;131339;1255;107475;-76
2023/04/14 11:48:03;;;;;;;6.70;5.70;;;;;;;18.86;49.64;99146.22;131332;1251;107236;-78
2023/04/14 11:51:08;;;;;;;6.30;5.30;;;;;;;18.84;49.02;99144.95;131421;1252;107570;-76
2023/04/14 11:54:14;;;;;;;6.40;5.30;;;;;;;18.79;48.97;99149.77;131408;1254;107501;-76
2023/04/14 11:57:20;;;;;;;6.40;5.00;;;;;;;18.64;49.17;99150.80;131330;1252;107370;-76
2023/04/14 12:00:26;;;;;;;5.70;5.00;;;;;;;18.48;49.52;99150.84;131400;1253;107545;-76
2023/04/14 12:03:34;;;;;;;6.80;5.20;;;;;;;18.36;48.96;99154.60;131412;1254;107262;-76
2023/04/14 12:06:40;;;;;;;6.80;5.10;;;;;;;18.26;48.81;99148.68;131481;1253;107252;-76
2023/04/14 12:09:47;;;;;;;5.30;4.80;;;;;;;18.20;48.39;99146.77;131383;1253;107525;-77
2023/04/14 12:13:00;;;;;;;5.30;4.80;;;;;;;18.11;48.84;99143.16;131344;1263;108797;-78
2023/04/14 12:16:06;;;;;;;5.70;4.90;;;;;;;18.09;48.36;99138.14;131350;1252;107519;-76
2023/04/14 12:19:11;;;;;;;6.70;5.10;;;;;;;18.15;48.58;99138.98;131231;1253;108683;-77
2023/04/14 12:22:25;;;;;;;5.50;4.90;;;;;;;18.04;48.62;99139.35;131529;1263;107429;-77
2023/04/14 12:25:34;;;;;;;5.90;4.60;;;;;;;17.92;47.50;99141.30;131464;1254;107220;-77
2023/04/14 12:28:40;;;;;;;5.10;4.60;;;;;;;17.99;48.01;99132.54;131335;1254;107520;-77
2023/04/14 12:31:46;;;;;;;5.00;4.50;;;;;;;18.05;48.47;99133.70;131149;1263;205321;-76
2023/04/14 12:34:56;;;;;;;6.00;5.30;;;;;;;18.03;48.57;99128.04;131666;1251;107525;-76
2023/04/14 12:38:08;;;;;;;6.40;4.80;;;;;;;18.01;48.67;99125.73;131089;1253;107265;-76
2023/04/14 12:41:22;;;;;;;5.70;5.00;;;;;;;17.93;48.04;99118.83;131006;1251;107371;-76
2023/04/14 12:44:29;;;;;;;6.30;5.10;;;;;;;18.02;48.14;99117.42;131128;1253;107539;-76
2023/04/14 12:47:35;;;;;;;5.70;4.80;;;;;;;18.07;47.72;99124.41;131137;1251;106748;-76
2023/04/14 12:50:41;;;;;;;6.50;5.10;;;;;;;18.10;47.91;99124.62;131171;1252;107507;-76
2023/04/14 12:53:48;;;;;;;5.40;4.70;;;;;;;18.12;47.49;99126.05;131401;1260;107142;-76
2023/04/14 12:56:54;;;;;;;5.70;4.90;;;;;;;18.05;47.67;99124.59;131401;1253;107474;-76
2023/04/14 13:00:00;;;;;;;5.60;5.00;;;;;;;17.97;47.96;99128.86;131109;1251;107561;-76
2023/04/14 13:03:06;;;;;;;8.20;5.40;;;;;;;17.85;48.19;99126.95;131176;1264;107382;-76
2023/04/14 13:06:15;;;;;;;5.70;5.10;;;;;;;17.77;48.17;99125.16;131206;1256;107510;-76
2023/04/14 13:09:20;;;;;;;5.50;5.00;;;;;;;17.76;48.13;99125.59;131284;1255;105795;-76
2023/04/14 13:12:26;;;;;;;6.80;5.70;;;;;;;17.75;48.44;99125.35;131158;1253;105778;-76
2023/04/14 13:15:31;;;;;;;7.20;5.90;;;;;;;17.75;48.47;99126.89;131166;1254;105761;-76
2023/04/14 13:18:37;;;;;;;7.90;5.90;;;;;;;17.83;48.73;99129.16;131218;1254;107403;-76
2023/04/14 13:21:42;;;;;;;6.70;5.80;;;;;;;17.85;48.77;99127.66;131408;1258;107538;-76
2023/04/14 13:24:48;;;;;;;7.80;6.50;;;;;;;17.84;48.88;99127.82;131421;1254;106807;-76
2023/04/14 13:27:54;;;;;;;7.40;6.30;;;;;;;17.93;49.02;99117.67;131447;1254;108513;-76
2023/04/14 13:31:00;;;;;;;7.50;5.50;;;;;;;17.99;48.78;99117.66;131287;1263;107445;-76
2023/04/14 13:34:05;;;;;;;6.80;6.10;;;;;;;17.96;48.69;99112.85;131069;1251;107559;-76
2023/04/14 13:37:10;;;;;;;7.50;5.90;;;;;;;17.91;48.73;99111.31;131155;1255;107512;-76
2023/04/14 13:40:16;;;;;;;7.60;5.60;;;;;;;17.92;48.68;99109.84;131105;1254;107517;-76
2023/04/14 13:43:22;;;;;;;6.20;5.50;;;;;;;17.87;48.46;99107.83;131200;1254;106779;-77
2023/04/14 13:46:27;;;;;;;10.10;5.80;;;;;;;17.76;48.62;99119.53;131200;1251;108082;-76
2023/04/14 13:49:32;;;;;;;6.00;5.40;;;;;;;17.67;48.76;99115.50;131107;1256;107477;-76
2023/04/14 13:52:39;;;;;;;6.10;5.10;;;;;;;17.61;48.75;99110.14;131410;1264;106545;-76
2023/04/14 13:55:45;;;;;;;6.00;5.30;;;;;;;17.59;48.55;99101.30;131417;1254;107113;-75
2023/04/14 13:58:50;;;;;;;7.20;5.20;;;;;;;17.59;48.73;99109.17;131114;1253;107559;-75
2023/04/14 14:01:56;;;;;;;7.00;5.20;;;;;;;17.54;48.39;99106.08;131378;1254;107489;-76
2023/04/14 14:05:02;;;;;;;6.80;5.80;;;;;;;17.49;48.75;99104.73;131197;1254;107612;-76
2023/04/14 14:08:07;;;;;;;9.60;6.70;;;;;;;17.43;48.61;99102.56;131074;1253;106653;-76
2023/04/14 14:11:13;;;;;;;9.30;7.60;;;;;;;17.39;48.92;99100.04;131015;1254;107920;-77